Strona główna
METAR-TAF:

METAR-TAF

Lotnisko :

Easton, Maryland, Stany Zjednoczone

Szerokość geograficzna: 38-48N, Długość geograficzna: 076-04W, wysokość: 22 m

Aktualna obserwacja pogody

Raport powstał 11 minut temu, godzina 10:04 UTC
Wiatr 5 kt od południowo-południowy zachód
Temperatura 0°C
Wilgotność 55%
Ciśnienie 1016 hPa
Widzialność: 16.1 km
bezchmurnie

METAR: KESN 281004Z AUTO 21005KT 10SM CLR 00/M08 A3000 RMK AO2 T00041077

czas: 05:15 (10:15 UTC)


TAF: brakujący

Obserwacja i prognoza pogody dla ponad 4000 lotnisk (raport METAR i TAF).

Dostępne stacje oznaczono żółtymi i czerwonymi punktami na mapie.

Najedź kursorem aby zobaczyć nazwę stacji.

Kliknij aby zobaczyć obserwacje i prognozy pogody.

Aby zmienić mapę: kliknij na zielony przycisk z czarnym krzyżykiem, aby powiększyć; na zielony przycisk z myślnikiem, aby pomniejszyć; na zielone strzałki, aby przejść do map sąsiednich.


METAR-TAF: